Time;durP1;ratioP1;P1;durP2;ratioP2;P2;SDS_P1;SDS_P2;PMS_P1;PMS_P2;Temp;Humidity;BMP_temperature;BMP_pressure;BME280_temperature;BME280_humidity;BME280_pressure;Samples;Min_cycle;Max_cycle;Signal;HPM_P1;HPM_P2
2023/11/07 00:00:13;;;;;;;16.23;14.55;;;8.40;99.90;;;;;;5027929;28;20080;-75
2023/11/07 00:02:41;;;;;;;17.33;15.93;;;8.40;99.90;;;;;;5023057;28;20047;-74
2023/11/07 00:05:11;;;;;;;17.00;15.57;;;8.50;99.90;;;;;;5020514;28;20650;-74
2023/11/07 00:07:39;;;;;;;16.42;15.15;;;8.40;99.90;;;;;;5019454;28;20135;-75
2023/11/07 00:10:07;;;;;;;17.05;15.60;;;8.40;99.90;;;;;;5022516;28;20099;-74
2023/11/07 00:12:34;;;;;;;16.70;15.00;;;8.30;99.90;;;;;;5022795;28;20049;-74
2023/11/07 00:15:01;;;;;;;16.02;15.05;;;8.30;99.90;;;;;;5026361;28;20039;-76
2023/11/07 00:17:28;;;;;;;16.63;15.02;;;8.30;99.90;;;;;;5023021;28;20483;-75
2023/11/07 00:19:56;;;;;;;15.77;14.57;;;8.30;99.90;;;;;;5023700;28;20148;-75
2023/11/07 00:22:24;;;;;;;16.27;14.88;;;8.40;99.90;;;;;;5030364;28;20166;-75
2023/11/07 00:24:53;;;;;;;16.92;15.52;;;8.40;99.90;;;;;;5021121;28;20095;-75
2023/11/07 00:27:20;;;;;;;16.75;15.30;;;8.50;99.90;;;;;;5024194;28;20043;-74
2023/11/07 00:29:46;;;;;;;15.70;14.48;;;8.40;99.90;;;;;;5021698;28;20514;-74
2023/11/07 00:32:14;;;;;;;16.05;14.70;;;8.50;99.90;;;;;;5023399;28;20041;-75
2023/11/07 00:34:41;;;;;;;15.95;14.57;;;8.50;99.90;;;;;;5017798;28;20076;-74
2023/11/07 00:37:09;;;;;;;15.48;14.35;;;8.40;99.90;;;;;;5022323;28;20139;-75
2023/11/07 00:39:36;;;;;;;15.55;14.45;;;8.50;99.90;;;;;;5021835;28;20048;-73
2023/11/07 00:42:04;;;;;;;16.60;15.07;;;8.50;99.90;;;;;;5022948;28;20595;-76
2023/11/07 00:44:31;;;;;;;17.35;15.70;;;8.60;99.90;;;;;;5019862;28;20069;-77
2023/11/07 00:46:59;;;;;;;16.75;15.55;;;8.60;99.90;;;;;;5023989;28;20046;-75
2023/11/07 00:49:28;;;;;;;17.23;15.70;;;8.70;99.90;;;;;;5008759;28;21866;-77
2023/11/07 00:51:55;;;;;;;15.63;14.45;;;8.80;99.90;;;;;;5021375;28;20064;-76
2023/11/07 00:54:21;;;;;;;16.45;15.25;;;8.80;99.90;;;;;;5027670;28;20090;-75
2023/11/07 00:56:48;;;;;;;19.45;15.80;;;8.70;99.90;;;;;;5019862;28;20049;-77
2023/11/07 00:59:15;;;;;;;16.80;15.50;;;8.70;99.90;;;;;;5005178;28;20037;-75
2023/11/07 01:01:42;;;;;;;16.88;15.68;;;8.80;99.90;;;;;;5017770;28;20451;-76
2023/11/07 01:04:09;;;;;;;16.58;15.20;;;8.80;99.90;;;;;;5026675;28;20144;-75
2023/11/07 01:06:36;;;;;;;17.05;15.48;;;8.80;99.90;;;;;;5025483;28;20049;-74
2023/11/07 01:09:04;;;;;;;16.35;15.10;;;8.70;99.90;;;;;;5029647;28;20142;-74
2023/11/07 01:11:31;;;;;;;16.88;15.52;;;8.70;99.90;;;;;;5020955;28;20396;-75
2023/11/07 01:13:58;;;;;;;17.33;15.73;;;8.80;99.90;;;;;;5030179;28;21124;-74
2023/11/07 01:16:25;;;;;;;16.85;15.55;;;8.80;99.90;;;;;;5024391;28;20041;-76
2023/11/07 01:18:52;;;;;;;16.48;15.50;;;8.80;99.90;;;;;;5025790;28;20033;-75
2023/11/07 01:21:19;;;;;;;16.90;15.50;;;8.80;99.90;;;;;;5014890;28;20048;-75
2023/11/07 01:23:46;;;;;;;16.88;15.45;;;8.70;99.90;;;;;;5020001;28;20037;-75
2023/11/07 01:26:13;;;;;;;17.42;16.13;;;8.80;99.90;;;;;;5027811;28;20126;-75
2023/11/07 01:28:40;;;;;;;16.58;15.48;;;8.80;99.90;;;;;;5011025;28;20048;-75
2023/11/07 01:31:08;;;;;;;15.45;14.65;;;8.70;99.90;;;;;;5041715;28;20052;-74
2023/11/07 01:33:35;;;;;;;16.63;15.20;;;8.70;99.90;;;;;;5031761;28;20060;-75
2023/11/07 01:36:03;;;;;;;16.88;15.63;;;8.70;99.90;;;;;;5010133;28;20815;-75
2023/11/07 01:38:30;;;;;;;17.23;15.93;;;8.70;99.90;;;;;;5025424;28;20304;-75
2023/11/07 01:40:57;;;;;;;17.13;15.65;;;8.60;99.90;;;;;;5020835;28;21135;-75
2023/11/07 01:43:24;;;;;;;18.05;16.38;;;8.60;99.90;;;;;;5010146;28;20041;-75
2023/11/07 01:45:51;;;;;;;17.58;16.00;;;8.60;99.90;;;;;;5023430;28;20043;-75
2023/11/07 01:48:22;;;;;;;17.48;15.95;;;8.70;99.90;;;;;;5027299;28;20117;-75
2023/11/07 01:50:49;;;;;;;16.17;15.18;;;8.70;99.90;;;;;;5017585;28;20048;-75
2023/11/07 01:53:17;;;;;;;16.38;15.15;;;8.70;99.90;;;;;;5022505;28;20112;-76
2023/11/07 01:55:44;;;;;;;16.75;15.75;;;8.70;99.90;;;;;;5020101;28;20098;-75
2023/11/07 01:58:12;;;;;;;17.10;15.45;;;8.70;99.90;;;;;;5028855;28;20041;-76
2023/11/07 02:00:39;;;;;;;16.38;15.20;;;8.70;99.90;;;;;;5026360;28;20559;-76
2023/11/07 02:03:07;;;;;;;16.67;15.25;;;8.70;99.90;;;;;;5029733;28;20132;-75
2023/11/07 02:05:34;;;;;;;16.15;15.05;;;8.70;99.90;;;;;;5012584;28;20098;-74
2023/11/07 02:08:04;;;;;;;16.48;15.23;;;8.70;99.90;;;;;;5026641;28;20499;-76
2023/11/07 02:10:31;;;;;;;16.35;15.13;;;8.70;99.90;;;;;;5023232;28;20423;-79
2023/11/07 02:12:58;;;;;;;16.75;15.50;;;8.80;99.90;;;;;;5022903;28;21535;-74
2023/11/07 02:15:26;;;;;;;16.10;15.00;;;8.80;99.90;;;;;;5021742;28;20063;-76
2023/11/07 02:17:54;;;;;;;15.98;15.07;;;8.80;99.90;;;;;;5026488;28;20049;-75
2023/11/07 02:20:21;;;;;;;16.05;14.90;;;8.80;99.90;;;;;;5022029;28;20457;-75
2023/11/07 02:22:53;;;;;;;17.02;15.82;;;8.90;99.90;;;;;;5019686;28;20095;-75
2023/11/07 02:25:19;;;;;;;16.08;15.13;;;8.90;99.90;;;;;;5028828;28;20086;-75
2023/11/07 02:27:46;;;;;;;16.70;15.50;;;8.90;99.90;;;;;;5027132;28;20045;-74
2023/11/07 02:30:14;;;;;;;16.70;15.70;;;8.90;99.90;;;;;;5011749;28;20127;-75
2023/11/07 02:32:41;;;;;;;18.08;16.17;;;9.00;99.90;;;;;;5012100;28;20056;-76
2023/11/07 02:35:13;;;;;;;16.70;15.80;;;9.00;99.90;;;;;;5027662;28;20121;-75
2023/11/07 02:37:41;;;;;;;16.92;15.73;;;9.10;99.90;;;;;;5023282;28;20234;-74
2023/11/07 02:40:10;;;;;;;17.75;16.08;;;9.10;99.90;;;;;;5024685;28;20053;-75
2023/11/07 02:42:37;;;;;;;17.42;16.20;;;9.00;99.90;;;;;;5029177;28;20041;-76
2023/11/07 02:45:07;;;;;;;16.88;15.98;;;9.10;99.90;;;;;;5019644;28;20041;-76
2023/11/07 02:47:34;;;;;;;17.60;16.38;;;9.10;99.90;;;;;;5022394;28;20061;-76
2023/11/07 02:50:10;;;;;;;18.67;16.77;;;9.10;99.90;;;;;;5012694;28;20626;-75
2023/11/07 02:52:38;;;;;;;17.77;16.45;;;9.10;99.90;;;;;;5004960;28;20052;-76
2023/11/07 02:55:05;;;;;;;18.15;16.58;;;9.10;99.90;;;;;;5040350;28;20072;-76
2023/11/07 02:57:32;;;;;;;17.42;16.42;;;9.10;99.90;;;;;;5017633;28;20061;-74
2023/11/07 02:59:59;;;;;;;17.00;15.90;;;9.10;99.90;;;;;;5019545;28;20110;-75
2023/11/07 03:02:26;;;;;;;16.58;15.68;;;9.10;99.90;;;;;;5025342;28;20069;-76
2023/11/07 03:04:54;;;;;;;17.35;16.20;;;9.00;99.90;;;;;;5019286;28;20079;-75
2023/11/07 03:07:21;;;;;;;17.77;16.17;;;9.00;99.90;;;;;;5023292;28;20040;-76
2023/11/07 03:09:48;;;;;;;18.42;16.60;;;9.00;99.90;;;;;;5020356;28;20116;-75
2023/11/07 03:12:16;;;;;;;16.90;15.90;;;9.10;99.90;;;;;;5021675;28;20037;-75
2023/11/07 03:14:43;;;;;;;17.45;16.05;;;9.10;99.90;;;;;;5021477;28;20045;-75
2023/11/07 03:17:10;;;;;;;18.02;16.50;;;9.10;99.90;;;;;;5021185;28;20052;-76
2023/11/07 03:19:37;;;;;;;17.80;16.45;;;9.20;99.90;;;;;;5018863;28;20088;-76
2023/11/07 03:22:04;;;;;;;17.48;16.23;;;9.10;99.90;;;;;;5005368;28;20048;-75
2023/11/07 03:24:31;;;;;;;17.70;16.52;;;9.10;99.90;;;;;;5022695;28;20044;-76
2023/11/07 03:26:58;;;;;;;17.70;16.50;;;9.10;99.90;;;;;;5020659;28;20037;-75
2023/11/07 03:29:25;;;;;;;17.17;15.98;;;9.10;99.90;;;;;;5018549;28;20151;-75
2023/11/07 03:31:53;;;;;;;16.92;16.08;;;9.10;99.90;;;;;;5005366;28;20056;-74
2023/11/07 03:34:21;;;;;;;17.02;15.85;;;9.10;99.90;;;;;;5024851;28;20049;-75
2023/11/07 03:36:48;;;;;;;17.35;16.10;;;9.10;99.90;;;;;;5018818;28;20228;-76
2023/11/07 03:39:15;;;;;;;17.88;16.40;;;9.10;99.90;;;;;;5011895;28;20147;-75
2023/11/07 03:41:44;;;;;;;17.10;15.90;;;9.10;99.90;;;;;;5017648;28;20045;-76
2023/11/07 03:44:12;;;;;;;18.00;16.80;;;9.10;99.90;;;;;;5024443;28;20046;-74
2023/11/07 03:46:38;;;;;;;16.83;15.73;;;9.10;99.90;;;;;;5019176;28;20466;-75
2023/11/07 03:49:07;;;;;;;17.38;16.30;;;9.10;99.90;;;;;;5008254;28;20053;-75
2023/11/07 03:51:34;;;;;;;17.40;16.20;;;9.10;99.90;;;;;;5018629;28;20046;-74
2023/11/07 03:54:01;;;;;;;17.83;16.30;;;9.00;99.90;;;;;;5015858;28;20595;-75
2023/11/07 03:56:28;;;;;;;17.27;16.05;;;9.00;99.90;;;;;;5020286;28;20056;-75
2023/11/07 03:58:55;;;;;;;18.05;16.50;;;9.10;99.90;;;;;;5020044;28;20044;-74
2023/11/07 04:01:22;;;;;;;17.50;16.40;;;9.10;99.90;;;;;;5024844;28;20060;-75
2023/11/07 04:03:49;;;;;;;18.00;16.63;;;9.10;99.90;;;;;;5016135;28;20037;-73
2023/11/07 04:06:17;;;;;;;18.02;16.60;;;9.10;99.90;;;;;;5022961;28;20071;-76
2023/11/07 04:08:44;;;;;;;18.30;16.83;;;9.20;99.90;;;;;;5018625;28;20506;-75
2023/11/07 04:11:11;;;;;;;17.55;16.55;;;9.20;99.90;;;;;;5020582;28;20095;-76
2023/11/07 04:13:38;;;;;;;18.17;16.90;;;9.10;99.90;;;;;;5024981;28;20053;-75
2023/11/07 04:16:05;;;;;;;18.52;17.10;;;9.00;99.90;;;;;;5014838;28;20037;-76
2023/11/07 04:18:32;;;;;;;18.15;16.85;;;8.90;99.90;;;;;;5023934;28;20060;-76
2023/11/07 04:20:59;;;;;;;17.80;16.52;;;8.80;99.90;;;;;;5015821;28;20465;-76
2023/11/07 04:23:26;;;;;;;16.50;15.55;;;8.80;99.90;;;;;;5026446;28;20044;-75
2023/11/07 04:25:53;;;;;;;16.55;15.55;;;8.70;99.90;;;;;;5014812;28;20041;-75
2023/11/07 04:28:20;;;;;;;16.88;15.57;;;8.70;99.90;;;;;;5008236;28;20098;-75
2023/11/07 04:30:47;;;;;;;16.35;15.40;;;8.70;99.90;;;;;;5012245;28;20130;-74
2023/11/07 04:33:14;;;;;;;15.75;14.77;;;8.60;99.90;;;;;;5001192;28;20049;-74
2023/11/07 04:35:42;;;;;;;16.30;15.30;;;8.70;99.90;;;;;;5021247;28;20120;-76
2023/11/07 04:38:09;;;;;;;16.33;15.52;;;8.70;99.90;;;;;;5020065;28;20052;-75
2023/11/07 04:40:39;;;;;;;16.77;15.68;;;8.60;99.90;;;;;;5006646;28;20053;-75
2023/11/07 04:43:07;;;;;;;16.63;15.63;;;8.60;99.90;;;;;;5021526;28;20052;-75
2023/11/07 04:45:34;;;;;;;16.80;15.48;;;8.60;99.90;;;;;;5024016;28;20041;-77
2023/11/07 04:48:02;;;;;;;15.88;15.00;;;8.60;99.90;;;;;;5022341;28;20040;-75
2023/11/07 04:50:29;;;;;;;16.63;15.32;;;8.60;99.90;;;;;;5021478;28;20159;-76
2023/11/07 04:52:56;;;;;;;16.35;15.30;;;8.70;99.90;;;;;;5023924;28;20049;-75
2023/11/07 04:55:23;;;;;;;16.40;15.40;;;8.70;99.90;;;;;;5029814;28;20055;-75
2023/11/07 04:57:50;;;;;;;16.50;15.35;;;8.80;99.90;;;;;;5024236;28;20029;-75
2023/11/07 05:00:17;;;;;;;16.83;15.73;;;8.80;99.90;;;;;;5026723;28;20048;-75
2023/11/07 05:02:45;;;;;;;16.90;15.80;;;8.90;99.90;;;;;;5006089;28;20069;-75
2023/11/07 05:05:14;;;;;;;16.65;15.75;;;9.00;99.90;;;;;;5023294;28;20662;-76
2023/11/07 05:07:41;;;;;;;16.20;15.30;;;9.00;99.90;;;;;;5026111;28;20030;-76
2023/11/07 05:10:12;;;;;;;16.50;15.50;;;9.00;99.90;;;;;;5021266;28;20056;-75
2023/11/07 05:12:39;;;;;;;16.50;15.60;;;9.00;99.90;;;;;;5008948;28;20048;-75
2023/11/07 05:15:07;;;;;;;15.93;15.13;;;9.00;99.90;;;;;;5021583;28;20045;-75
2023/11/07 05:17:35;;;;;;;17.38;16.20;;;9.00;99.90;;;;;;5030210;28;20045;-75
2023/11/07 05:20:07;;;;;;;17.45;16.00;;;9.00;99.90;;;;;;5017530;28;20033;-76
2023/11/07 05:22:34;;;;;;;16.80;15.63;;;9.10;99.90;;;;;;5027443;28;20308;-75
2023/11/07 05:25:01;;;;;;;17.45;16.15;;;9.10;99.90;;;;;;5020486;28;20715;-75
2023/11/07 05:27:28;;;;;;;17.42;16.17;;;9.00;99.90;;;;;;5007593;28;20518;-75
2023/11/07 05:29:55;;;;;;;17.25;16.30;;;9.00;99.90;;;;;;5024301;28;20139;-75
2023/11/07 05:32:22;;;;;;;16.98;15.82;;;9.00;99.90;;;;;;5031109;28;20083;-76
2023/11/07 05:34:49;;;;;;;17.63;16.58;;;9.00;99.90;;;;;;5027470;28;20063;-75
2023/11/07 05:37:16;;;;;;;18.17;16.98;;;9.00;99.90;;;;;;5023457;28;20044;-75
2023/11/07 05:39:44;;;;;;;17.45;16.55;;;9.00;99.90;;;;;;5010761;28;20123;-76
2023/11/07 05:42:11;;;;;;;17.35;16.33;;;9.00;99.90;;;;;;5010416;28;20057;-76
2023/11/07 05:44:38;;;;;;;17.63;16.33;;;9.10;99.90;;;;;;5023711;28;20103;-76
2023/11/07 05:47:06;;;;;;;17.15;16.15;;;9.10;99.90;;;;;;5023517;28;20037;-76
2023/11/07 05:49:34;;;;;;;17.20;16.02;;;9.10;99.90;;;;;;5028304;28;20041;-75
2023/11/07 05:52:03;;;;;;;17.88;16.60;;;9.10;99.90;;;;;;5015259;28;20051;-76
2023/11/07 05:54:30;;;;;;;18.80;17.48;;;9.00;99.90;;;;;;5020073;28;20068;-76
2023/11/07 05:56:57;;;;;;;18.40;17.05;;;9.00;99.90;;;;;;5017024;28;20667;-76
2023/11/07 05:59:25;;;;;;;19.00;17.58;;;9.00;99.90;;;;;;5032950;28;20693;-76
2023/11/07 06:01:53;;;;;;;17.63;16.52;;;9.00;99.90;;;;;;5023940;28;20056;-74
2023/11/07 06:04:36;;;;;;;17.95;16.80;;;9.00;99.90;;;;;;5021491;28;20124;-75
2023/11/07 06:07:03;;;;;;;17.63;16.42;;;9.00;99.90;;;;;;5037675;28;20447;-74
2023/11/07 06:09:30;;;;;;;17.05;15.88;;;9.00;99.90;;;;;;5017150;28;20046;-76
2023/11/07 06:11:57;;;;;;;17.60;16.40;;;9.00;99.90;;;;;;5019416;28;20694;-76
2023/11/07 06:14:24;;;;;;;17.27;16.27;;;9.00;99.90;;;;;;5027905;28;20050;-76
2023/11/07 06:16:54;;;;;;;17.48;16.17;;;9.00;99.90;;;;;;5025062;28;20037;-75
2023/11/07 06:19:22;;;;;;;17.95;16.80;;;9.10;99.90;;;;;;5021791;28;20049;-76
2023/11/07 06:21:49;;;;;;;17.58;16.63;;;9.10;99.90;;;;;;5027294;28;20467;-75
2023/11/07 06:24:16;;;;;;;17.58;16.33;;;9.10;99.90;;;;;;5033498;28;21347;-76
2023/11/07 06:26:45;;;;;;;17.23;16.33;;;9.10;99.90;;;;;;5031818;28;20033;-76
2023/11/07 06:29:13;;;;;;;18.08;16.75;;;9.10;99.90;;;;;;5017849;28;20048;-75
2023/11/07 06:31:45;;;;;;;17.20;16.20;;;9.10;99.90;;;;;;5015482;28;20048;-73
2023/11/07 06:34:14;;;;;;;18.83;17.48;;;9.10;99.90;;;;;;5021702;28;20052;-75
2023/11/07 06:36:41;;;;;;;17.23;16.08;;;9.20;99.90;;;;;;5019905;28;20041;-75
2023/11/07 06:39:10;;;;;;;18.27;16.95;;;9.10;99.90;;;;;;5023499;28;20083;-77
2023/11/07 06:41:38;;;;;;;17.73;16.60;;;9.10;99.90;;;;;;5029600;28;20044;-75
2023/11/07 06:44:06;;;;;;;17.50;16.25;;;9.10;99.90;;;;;;5010918;28;20134;-75
2023/11/07 06:46:33;;;;;;;16.45;15.55;;;9.10;99.90;;;;;;5024941;28;20105;-75
2023/11/07 06:48:59;;;;;;;16.67;15.73;;;9.10;99.90;;;;;;5026924;28;20502;-76
2023/11/07 06:51:28;;;;;;;17.83;16.92;;;9.10;99.90;;;;;;5024774;28;20558;-75
2023/11/07 06:53:55;;;;;;;18.10;16.88;;;9.10;99.90;;;;;;5030499;28;20048;-75
2023/11/07 06:56:22;;;;;;;20.50;19.10;;;9.10;99.90;;;;;;5021180;28;20052;-76
2023/11/07 06:58:49;;;;;;;19.80;18.60;;;9.10;99.90;;;;;;5008308;28;20041;-75
2023/11/07 07:01:16;;;;;;;19.45;18.33;;;9.10;99.90;;;;;;5023589;28;20817;-75
2023/11/07 07:03:43;;;;;;;19.42;18.33;;;9.10;99.90;;;;;;5011348;28;20608;-74
2023/11/07 07:06:11;;;;;;;20.30;18.77;;;9.10;99.90;;;;;;5000026;28;20060;-74
2023/11/07 07:08:39;;;;;;;19.48;18.27;;;9.10;99.90;;;;;;5025941;28;20046;-75
2023/11/07 07:11:05;;;;;;;20.30;19.00;;;9.10;99.90;;;;;;5014383;28;20050;-75
2023/11/07 07:13:33;;;;;;;19.95;18.58;;;9.10;99.90;;;;;;5024768;28;20044;-75
2023/11/07 07:16:03;;;;;;;19.75;18.65;;;9.20;99.90;;;;;;5021248;28;20120;-74
2023/11/07 07:18:30;;;;;;;19.45;18.33;;;9.20;99.90;;;;;;5006353;28;20083;-76
2023/11/07 07:20:57;;;;;;;18.40;17.40;;;9.20;99.90;;;;;;5028943;28;20053;-74
2023/11/07 07:23:25;;;;;;;19.10;17.98;;;9.20;99.90;;;;;;5021743;28;20102;-76
2023/11/07 07:26:01;;;;;;;18.73;17.42;;;9.20;99.90;;;;;;5023542;28;20045;-76
2023/11/07 07:28:27;;;;;;;18.55;17.55;;;9.10;99.90;;;;;;5005269;28;20670;-76
2023/11/07 07:30:54;;;;;;;19.88;18.30;;;9.20;99.90;;;;;;5023229;28;20584;-76
2023/11/07 07:33:24;;;;;;;19.42;18.23;;;9.20;99.90;;;;;;5021660;28;20081;-76
2023/11/07 07:35:51;;;;;;;19.33;18.13;;;9.20;99.90;;;;;;5025417;28;20132;-75
2023/11/07 07:38:18;;;;;;;19.00;17.80;;;9.20;99.90;;;;;;5010568;28;20053;-75
2023/11/07 07:40:49;;;;;;;18.70;17.60;;;9.20;99.90;;;;;;5022322;28;20041;-76
2023/11/07 07:43:15;;;;;;;18.98;17.88;;;9.30;99.90;;;;;;5009221;28;20269;-75
2023/11/07 07:45:42;;;;;;;18.73;17.42;;;9.20;99.90;;;;;;5023930;28;20045;-75
2023/11/07 07:48:10;;;;;;;19.20;17.65;;;9.30;99.90;;;;;;5008867;28;20594;-75
2023/11/07 07:50:41;;;;;;;18.00;16.88;;;9.20;99.90;;;;;;5024044;28;20655;-77
2023/11/07 07:53:09;;;;;;;18.40;17.42;;;9.20;99.90;;;;;;5041268;28;20128;-76
2023/11/07 07:55:36;;;;;;;18.48;17.45;;;9.20;99.90;;;;;;5020770;28;20061;-75
2023/11/07 07:58:06;;;;;;;18.60;17.60;;;9.20;99.90;;;;;;5024878;28;20041;-77
2023/11/07 08:00:37;;;;;;;19.10;17.80;;;9.20;99.90;;;;;;5009777;28;21541;-77
2023/11/07 08:03:09;;;;;;;18.27;17.27;;;9.20;99.90;;;;;;5021530;28;20107;-77
2023/11/07 08:05:40;;;;;;;18.70;17.75;;;9.30;99.90;;;;;;5013399;28;20045;-77
2023/11/07 08:08:09;;;;;;;18.67;17.58;;;9.30;99.90;;;;;;5002053;28;20048;-75
2023/11/07 08:10:37;;;;;;;18.80;17.58;;;9.30;99.90;;;;;;5007002;28;20046;-77
2023/11/07 08:13:06;;;;;;;20.00;18.75;;;9.30;99.90;;;;;;5043951;28;20046;-77
2023/11/07 08:15:35;;;;;;;19.38;18.38;;;9.30;99.90;;;;;;5011803;28;20122;-77
2023/11/07 08:18:06;;;;;;;19.58;18.20;;;9.40;99.90;;;;;;5030670;28;20045;-76
2023/11/07 08:20:36;;;;;;;19.70;18.10;;;9.40;99.90;;;;;;5020241;28;20045;-76
2023/11/07 08:23:04;;;;;;;18.75;17.55;;;9.40;99.90;;;;;;5023046;28;20055;-77
2023/11/07 08:25:40;;;;;;;18.95;17.75;;;9.40;99.90;;;;;;5014106;28;20120;-77
2023/11/07 08:28:09;;;;;;;18.95;17.90;;;9.40;99.90;;;;;;5024991;28;20766;-77
2023/11/07 08:30:43;;;;;;;19.35;17.83;;;9.40;99.90;;;;;;5045274;28;20048;-77
2023/11/07 08:33:12;;;;;;;18.73;17.60;;;9.40;99.90;;;;;;5024039;28;20049;-75
2023/11/07 08:35:40;;;;;;;18.48;17.38;;;9.40;99.90;;;;;;5024822;28;20537;-75
2023/11/07 08:38:07;;;;;;;19.05;17.95;;;9.50;99.90;;;;;;5029856;28;20049;-75
2023/11/07 08:40:35;;;;;;;18.85;17.75;;;9.60;99.90;;;;;;5006018;28;20088;-76
2023/11/07 08:43:03;;;;;;;19.13;18.02;;;9.60;99.90;;;;;;5020912;28;20041;-75
2023/11/07 08:45:32;;;;;;;18.70;17.80;;;9.60;99.90;;;;;;5023575;28;20081;-76
2023/11/07 08:48:00;;;;;;;19.65;18.50;;;9.60;99.90;;;;;;5016630;28;20578;-75
2023/11/07 08:50:27;;;;;;;19.08;17.88;;;9.60;99.90;;;;;;5025392;28;20045;-76
2023/11/07 08:52:53;;;;;;;19.30;18.00;;;9.60;99.90;;;;;;5029172;28;20106;-75
2023/11/07 08:55:21;;;;;;;19.08;18.08;;;9.70;99.90;;;;;;5028567;28;20045;-77
2023/11/07 08:57:49;;;;;;;20.17;18.83;;;9.80;99.90;;;;;;5031194;28;20040;-75
2023/11/07 09:00:27;;;;;;;19.85;18.83;;;9.80;99.90;;;;;;5020167;28;20053;-75
2023/11/07 09:02:54;;;;;;;20.63;19.33;;;9.80;99.90;;;;;;5030213;28;20139;-76
2023/11/07 09:05:22;;;;;;;19.48;18.48;;;9.80;99.90;;;;;;5017336;28;20041;-76
2023/11/07 09:07:49;;;;;;;20.40;19.25;;;9.80;99.90;;;;;;5024051;28;20073;-74
2023/11/07 09:10:16;;;;;;;20.80;19.70;;;9.90;99.90;;;;;;5023307;28;20033;-74
2023/11/07 09:12:43;;;;;;;21.40;20.13;;;10.00;99.90;;;;;;5029433;28;20033;-75
2023/11/07 09:15:13;;;;;;;20.80;19.65;;;10.00;99.90;;;;;;5019134;28;20103;-76
2023/11/07 09:17:42;;;;;;;20.45;19.35;;;10.00;99.90;;;;;;5027642;28;20049;-76
2023/11/07 09:20:14;;;;;;;21.25;19.88;;;10.00;99.90;;;;;;5024043;28;20689;-75
2023/11/07 09:22:42;;;;;;;19.80;18.65;;;10.00;99.90;;;;;;5027480;28;20469;-75
2023/11/07 09:25:10;;;;;;;19.92;18.83;;;10.00;99.90;;;;;;5026964;28;20053;-74
2023/11/07 09:27:38;;;;;;;20.33;19.33;;;10.00;99.90;;;;;;5027281;28;20038;-76
2023/11/07 09:30:08;;;;;;;21.10;19.90;;;9.90;99.90;;;;;;5027862;28;20036;-75
2023/11/07 09:32:39;;;;;;;21.35;20.20;;;9.90;99.90;;;;;;5027763;28;20075;-75
2023/11/07 09:35:07;;;;;;;21.05;19.95;;;10.00;99.90;;;;;;5040977;28;20846;-75
2023/11/07 09:37:39;;;;;;;20.92;19.75;;;9.90;99.90;;;;;;5006273;28;20037;-76
2023/11/07 09:40:12;;;;;;;20.85;19.38;;;9.90;99.90;;;;;;5029419;28;20132;-75
2023/11/07 09:42:44;;;;;;;20.75;19.48;;;10.00;99.90;;;;;;5030688;28;20049;-76
2023/11/07 09:45:16;;;;;;;21.15;20.05;;;10.00;99.90;;;;;;5027088;28;20048;-76
2023/11/07 09:47:47;;;;;;;20.92;19.77;;;10.10;99.90;;;;;;5026750;28;20128;-76
2023/11/07 09:50:16;;;;;;;20.08;18.98;;;10.00;99.90;;;;;;5026245;28;20061;-76
2023/11/07 09:52:48;;;;;;;20.67;19.60;;;10.10;99.90;;;;;;5027737;28;20042;-75
2023/11/07 09:55:15;;;;;;;20.17;19.08;;;10.20;99.90;;;;;;5028223;28;20043;-75
2023/11/07 09:58:00;;;;;;;21.20;20.10;;;10.20;99.90;;;;;;5033166;28;20029;-76
2023/11/07 10:00:45;;;;;;;20.95;19.70;;;10.30;99.90;;;;;;5031094;28;20539;-76
2023/11/07 10:03:13;;;;;;;20.52;19.52;;;10.20;99.90;;;;;;5028844;28;20700;-75
2023/11/07 10:05:41;;;;;;;21.63;20.52;;;10.20;99.90;;;;;;5043724;28;20044;-76
2023/11/07 10:08:09;;;;;;;20.67;19.58;;;10.20;99.90;;;;;;5030419;28;20037;-76
2023/11/07 10:10:36;;;;;;;20.83;19.70;;;10.20;99.90;;;;;;5015582;28;20060;-75
2023/11/07 10:13:08;;;;;;;21.60;20.40;;;10.20;99.90;;;;;;5032294;28;20509;-76
2023/11/07 10:15:35;;;;;;;20.55;19.45;;;10.20;99.90;;;;;;5010667;28;20053;-75
2023/11/07 10:18:10;;;;;;;19.73;18.73;;;10.20;99.90;;;;;;5017760;28;20110;-75
2023/11/07 10:20:49;;;;;;;20.27;19.08;;;10.20;99.90;;;;;;5028125;28;20120;-76
2023/11/07 10:23:17;;;;;;;19.73;18.73;;;10.20;99.90;;;;;;5032476;28;20052;-75
2023/11/07 10:25:49;;;;;;;19.55;18.55;;;10.30;99.90;;;;;;5037959;28;20044;-75
2023/11/07 10:28:23;;;;;;;19.02;17.95;;;10.30;99.90;;;;;;5011630;28;20037;-75
2023/11/07 10:30:50;;;;;;;19.77;18.77;;;10.20;99.90;;;;;;5035075;28;20579;-75
2023/11/07 10:33:24;;;;;;;19.98;18.77;;;10.30;99.90;;;;;;5010795;28;20099;-73
2023/11/07 10:35:56;;;;;;;19.85;18.75;;;10.40;99.90;;;;;;5032276;28;20045;-75
2023/11/07 10:38:24;;;;;;;19.52;18.52;;;10.40;99.90;;;;;;5014125;28;20234;-75
2023/11/07 10:40:51;;;;;;;19.95;18.90;;;10.50;99.90;;;;;;5010965;28;20596;-75
2023/11/07 10:43:34;;;;;;;19.63;18.42;;;10.50;99.90;;;;;;5025368;28;20073;-75
2023/11/07 10:46:09;;;;;;;20.48;19.38;;;10.40;99.90;;;;;;5030016;28;20098;-75
2023/11/07 10:48:40;;;;;;;;;;;10.50;99.90;;;;;;5025801;28;20057;-75
2023/11/07 10:51:11;;;;;;;21.40;20.13;;;10.60;99.90;;;;;;5008542;28;19975;-75
2023/11/07 10:53:43;;;;;;;20.63;19.52;;;10.60;99.90;;;;;;5029977;28;20144;-75
2023/11/07 10:56:12;;;;;;;20.00;18.95;;;10.70;99.90;;;;;;5028912;28;20126;-74
2023/11/07 10:58:51;;;;;;;20.08;19.08;;;10.80;99.90;;;;;;5028577;28;20053;-75
2023/11/07 11:01:24;;;;;;;20.05;18.95;;;10.80;99.90;;;;;;5025280;28;20087;-75
2023/11/07 11:03:53;;;;;;;20.13;19.02;;;10.70;99.90;;;;;;5013828;28;20072;-75
2023/11/07 11:06:23;;;;;;;20.20;19.10;;;10.70;99.90;;;;;;5030713;28;20052;-75
2023/11/07 11:08:56;;;;;;;20.80;19.60;;;10.60;99.90;;;;;;5028290;28;20560;-76
2023/11/07 11:11:29;;;;;;;21.95;20.63;;;10.50;99.90;;;;;;5025691;28;20052;-74
2023/11/07 11:13:59;;;;;;;20.35;19.20;;;10.50;99.90;;;;;;5035856;28;20645;-75
2023/11/07 11:16:26;;;;;;;20.65;19.35;;;10.40;99.90;;;;;;5022458;28;20110;-75
2023/11/07 11:19:24;;;;;;;21.48;20.27;;;10.40;99.90;;;;;;5030704;28;20076;-75
2023/11/07 11:22:35;;;;;;;20.75;19.55;;;10.50;99.90;;;;;;5040779;28;20041;-75
2023/11/07 11:25:17;;;;;;;21.15;19.92;;;10.50;99.90;;;;;;5044369;28;20050;-75
2023/11/07 11:27:56;;;;;;;21.27;20.08;;;10.50;99.90;;;;;;5011901;28;20421;-75
2023/11/07 11:30:33;;;;;;;20.75;19.65;;;10.50;99.90;;;;;;5044300;28;20052;-74
2023/11/07 11:33:08;;;;;;;21.10;19.80;;;10.50;99.90;;;;;;5017163;28;20124;-75
2023/11/07 11:35:41;;;;;;;21.63;20.10;;;10.60;99.90;;;;;;5015157;28;20049;-76
2023/11/07 11:38:19;;;;;;;24.38;22.77;;;10.60;99.90;;;;;;5030406;28;20095;-76
2023/11/07 11:40:51;;;;;;;36.17;32.78;;;10.70;99.90;;;;;;5027338;28;20644;-75
2023/11/07 11:43:20;;;;;;;23.67;22.08;;;10.70;99.90;;;;;;5026975;28;20500;-73
2023/11/07 11:45:52;;;;;;;20.80;19.70;;;10.70;99.90;;;;;;5025819;28;20137;-75
2023/11/07 11:48:39;;;;;;;21.50;20.10;;;10.60;99.90;;;;;;5029707;28;20067;-75
2023/11/07 11:51:29;;;;;;;21.80;20.40;;;10.60;99.90;;;;;;5033058;28;21405;-75
2023/11/07 11:53:56;;;;;;;21.00;19.60;;;10.60;99.90;;;;;;5032874;28;20052;-76
2023/11/07 11:56:23;;;;;;;20.67;19.38;;;10.70;99.90;;;;;;5028965;28;20041;-75
2023/11/07 11:59:04;;;;;;;21.70;20.27;;;10.80;99.90;;;;;;5009465;28;20064;-75
2023/11/07 12:01:48;;;;;;;23.05;21.48;;;10.80;99.90;;;;;;5022379;28;20045;-75
2023/11/07 12:04:38;;;;;;;23.48;21.67;;;10.80;99.90;;;;;;5029222;28;20546;-76
2023/11/07 12:07:14;;;;;;;23.25;21.55;;;10.90;99.90;;;;;;5046400;28;20431;-74
2023/11/07 12:09:50;;;;;;;22.52;20.80;;;10.90;99.90;;;;;;5024256;28;20044;-74
2023/11/07 12:12:18;;;;;;;23.02;21.30;;;10.90;99.90;;;;;;5025256;28;20107;-74
2023/11/07 12:14:56;;;;;;;21.65;20.45;;;10.90;99.90;;;;;;5026735;28;20153;-75
2023/11/07 12:17:26;;;;;;;20.20;19.02;;;11.00;99.90;;;;;;5027273;28;20063;-73
2023/11/07 12:20:08;;;;;;;22.23;20.70;;;11.10;99.90;;;;;;5027462;28;20036;-73
2023/11/07 12:22:35;;;;;;;22.52;21.23;;;11.30;99.90;;;;;;5021889;28;20041;-74
2023/11/07 12:25:06;;;;;;;21.70;20.13;;;11.30;99.90;;;;;;5026284;28;20049;-75
2023/11/07 12:27:34;;;;;;;23.92;22.25;;;11.20;99.90;;;;;;5027161;28;20041;-74
2023/11/07 12:30:16;;;;;;;20.95;19.58;;;11.10;99.90;;;;;;5026603;28;20538;-75
2023/11/07 12:32:45;;;;;;;22.42;20.98;;;11.00;99.90;;;;;;5022782;28;20753;-74
2023/11/07 12:35:19;;;;;;;21.33;19.88;;;11.20;99.90;;;;;;5025989;28;20075;-74
2023/11/07 12:37:47;;;;;;;22.60;21.30;;;11.50;99.90;;;;;;5023204;28;20041;-75
2023/11/07 12:40:15;;;;;;;22.33;20.75;;;11.60;99.90;;;;;;5025564;28;20045;-75
2023/11/07 12:42:52;;;;;;;21.40;20.10;;;11.40;99.90;;;;;;5026441;28;20041;-75
2023/11/07 12:45:28;;;;;;;20.83;19.73;;;11.20;99.90;;;;;;5025310;28;20137;-76